sensor_id;sensor_type;location;lat;lon;timestamp;pressure;altitude;pressure_sealevel;temperature;humidity
52745;BME280;38637;49.984;20.426;2023-05-01T00:01:04;99876.34;;;3.78;85.40
52745;BME280;38637;49.984;20.426;2023-05-01T00:03:31;99873.63;;;3.72;85.37
52745;BME280;38637;49.984;20.426;2023-05-01T00:06:03;99873.63;;;3.65;85.35
52745;BME280;38637;49.984;20.426;2023-05-01T00:08:32;99884.00;;;3.61;85.61
52745;BME280;38637;49.984;20.426;2023-05-01T00:11:02;99882.31;;;3.60;85.42
52745;BME280;38637;49.984;20.426;2023-05-01T00:13:27;99881.91;;;3.57;85.43
52745;BME280;38637;49.984;20.426;2023-05-01T00:15:53;99886.66;;;3.55;85.62
52745;BME280;38637;49.984;20.426;2023-05-01T00:18:19;99891.22;;;3.54;85.98
52745;BME280;38637;49.984;20.426;2023-05-01T00:20:45;99889.97;;;3.50;85.61
52745;BME280;38637;49.984;20.426;2023-05-01T00:23:10;99882.31;;;3.54;86.48
52745;BME280;38637;49.984;20.426;2023-05-01T00:25:36;99893.53;;;3.57;86.06
52745;BME280;38637;49.984;20.426;2023-05-01T00:28:02;99885.22;;;3.52;85.62
52745;BME280;38637;49.984;20.426;2023-05-01T00:30:27;99885.00;;;3.47;86.08
52745;BME280;38637;49.984;20.426;2023-05-01T00:32:53;99888.72;;;3.46;86.57
52745;BME280;38637;49.984;20.426;2023-05-01T00:35:18;99889.34;;;3.55;85.60
52745;BME280;38637;49.984;20.426;2023-05-01T00:37:43;99891.63;;;3.51;86.05
52745;BME280;38637;49.984;20.426;2023-05-01T00:40:09;99880.25;;;3.56;86.00
52745;BME280;38637;49.984;20.426;2023-05-01T00:42:35;99888.13;;;3.64;85.51
52745;BME280;38637;49.984;20.426;2023-05-01T00:45:04;99891.06;;;3.69;85.06
52745;BME280;38637;49.984;20.426;2023-05-01T00:47:29;99893.53;;;3.64;85.33
52745;BME280;38637;49.984;20.426;2023-05-01T00:49:55;99891.47;;;3.59;85.05
52745;BME280;38637;49.984;20.426;2023-05-01T00:52:20;99890.63;;;3.59;84.60
52745;BME280;38637;49.984;20.426;2023-05-01T00:54:46;99890.00;;;3.57;84.65
52745;BME280;38637;49.984;20.426;2023-05-01T00:57:20;99888.94;;;3.51;85.21
52745;BME280;38637;49.984;20.426;2023-05-01T00:59:46;99886.47;;;3.56;85.54
52745;BME280;38637;49.984;20.426;2023-05-01T01:02:12;99894.75;;;3.48;85.73
52745;BME280;38637;49.984;20.426;2023-05-01T01:04:41;99894.97;;;3.47;85.88
52745;BME280;38637;49.984;20.426;2023-05-01T01:07:11;99903.66;;;3.49;85.34
52745;BME280;38637;49.984;20.426;2023-05-01T01:10:01;99898.88;;;3.44;86.14
52745;BME280;38637;49.984;20.426;2023-05-01T01:13:46;99892.19;;;3.33;85.56
52745;BME280;38637;49.984;20.426;2023-05-01T01:15:53;99900.25;;;3.27;86.60
52745;BME280;38637;49.984;20.426;2023-05-01T01:21:09;99895.97;;;3.39;86.36
52745;BME280;38637;49.984;20.426;2023-05-01T01:23:48;99889.94;;;3.37;85.94
52745;BME280;38637;49.984;20.426;2023-05-01T01:34:50;99900.28;;;3.33;86.26
52745;BME280;38637;49.984;20.426;2023-05-01T01:37:28;99896.09;;;3.24;86.21
52745;BME280;38637;49.984;20.426;2023-05-01T01:40:14;99898.97;;;3.09;86.41
52745;BME280;38637;49.984;20.426;2023-05-01T01:42:52;99893.56;;;3.09;86.23
52745;BME280;38637;49.984;20.426;2023-05-01T01:45:26;99902.47;;;3.03;86.61
52745;BME280;38637;49.984;20.426;2023-05-01T01:47:54;99899.31;;;2.99;87.08
52745;BME280;38637;49.984;20.426;2023-05-01T01:50:23;99891.03;;;3.01;86.58
52745;BME280;38637;49.984;20.426;2023-05-01T01:52:51;99888.56;;;3.06;86.43
52745;BME280;38637;49.984;20.426;2023-05-01T01:55:21;99892.13;;;3.13;86.20
52745;BME280;38637;49.984;20.426;2023-05-01T01:57:49;99886.44;;;3.02;86.21
52745;BME280;38637;49.984;20.426;2023-05-01T02:00:16;99880.59;;;2.91;85.84
52745;BME280;38637;49.984;20.426;2023-05-01T02:02:42;99889.66;;;2.84;86.84
52745;BME280;38637;49.984;20.426;2023-05-01T02:05:12;99883.00;;;2.73;86.66
52745;BME280;38637;49.984;20.426;2023-05-01T02:07:39;99887.97;;;2.76;87.30
52745;BME280;38637;49.984;20.426;2023-05-01T02:10:07;99882.81;;;2.81;87.28
52745;BME280;38637;49.984;20.426;2023-05-01T02:12:34;99884.72;;;2.87;86.75
52745;BME280;38637;49.984;20.426;2023-05-01T02:15:01;99882.41;;;2.84;86.80
52745;BME280;38637;49.984;20.426;2023-05-01T02:17:27;99876.59;;;2.81;86.66
52745;BME280;38637;49.984;20.426;2023-05-01T02:19:54;99878.03;;;2.76;86.37
52745;BME280;38637;49.984;20.426;2023-05-01T02:22:21;99871.41;;;2.79;86.34
52745;BME280;38637;49.984;20.426;2023-05-01T02:24:48;99874.09;;;2.79;86.55
52745;BME280;38637;49.984;20.426;2023-05-01T02:27:16;99865.50;;;2.69;86.23
52745;BME280;38637;49.984;20.426;2023-05-01T02:29:44;99869.22;;;2.61;86.47
52745;BME280;38637;49.984;20.426;2023-05-01T02:32:10;99874.00;;;2.66;86.50
52745;BME280;38637;49.984;20.426;2023-05-01T02:34:36;99874.59;;;2.61;86.14
52745;BME280;38637;49.984;20.426;2023-05-01T02:37:03;99873.72;;;2.54;86.51
52745;BME280;38637;49.984;20.426;2023-05-01T02:39:28;99878.28;;;2.53;86.33
52745;BME280;38637;49.984;20.426;2023-05-01T02:41:56;99878.88;;;2.49;86.70
52745;BME280;38637;49.984;20.426;2023-05-01T02:44:23;99875.28;;;2.42;87.20
52745;BME280;38637;49.984;20.426;2023-05-01T02:46:51;99866.75;;;2.38;87.10
52745;BME280;38637;49.984;20.426;2023-05-01T02:49:17;99871.72;;;2.35;87.11
52745;BME280;38637;49.984;20.426;2023-05-01T02:51:44;99877.19;;;2.48;87.28
52745;BME280;38637;49.984;20.426;2023-05-01T02:54:11;99864.13;;;2.45;87.02
52745;BME280;38637;49.984;20.426;2023-05-01T02:56:37;99869.91;;;2.42;87.34
52745;BME280;38637;49.984;20.426;2023-05-01T02:59:02;99879.88;;;2.48;86.58
52745;BME280;38637;49.984;20.426;2023-05-01T03:01:28;99868.63;;;2.38;87.16
52745;BME280;38637;49.984;20.426;2023-05-01T03:03:53;99874.84;;;2.38;87.16
52745;BME280;38637;49.984;20.426;2023-05-01T03:06:19;99876.16;;;2.42;86.98
52745;BME280;38637;49.984;20.426;2023-05-01T03:08:44;99879.06;;;2.47;87.08
52745;BME280;38637;49.984;20.426;2023-05-01T03:11:11;99879.09;;;2.54;86.79
52745;BME280;38637;49.984;20.426;2023-05-01T03:13:36;99876.41;;;2.54;86.62
52745;BME280;38637;49.984;20.426;2023-05-01T03:16:02;99872.69;;;2.55;86.37
52745;BME280;38637;49.984;20.426;2023-05-01T03:18:28;99877.88;;;2.57;86.52
52745;BME280;38637;49.984;20.426;2023-05-01T03:20:54;99869.41;;;2.60;86.19
52745;BME280;38637;49.984;20.426;2023-05-01T03:23:23;99868.31;;;2.54;87.08
52745;BME280;38637;49.984;20.426;2023-05-01T03:25:49;99863.50;;;2.43;86.52
52745;BME280;38637;49.984;20.426;2023-05-01T03:28:14;99861.75;;;2.35;86.74
52745;BME280;38637;49.984;20.426;2023-05-01T03:30:40;99860.75;;;2.36;87.68
52745;BME280;38637;49.984;20.426;2023-05-01T03:33:06;99857.47;;;2.41;87.61
52745;BME280;38637;49.984;20.426;2023-05-01T03:35:31;99853.72;;;2.42;88.13
52745;BME280;38637;49.984;20.426;2023-05-01T03:37:56;99849.22;;;2.49;88.26
52745;BME280;38637;49.984;20.426;2023-05-01T03:40:21;99855.75;;;2.61;87.48
52745;BME280;38637;49.984;20.426;2023-05-01T03:42:47;99846.88;;;2.74;86.98
52745;BME280;38637;49.984;20.426;2023-05-01T03:45:12;99851.72;;;2.85;86.10
52745;BME280;38637;49.984;20.426;2023-05-01T03:47:38;99855.28;;;2.92;84.87
52745;BME280;38637;49.984;20.426;2023-05-01T03:50:03;99848.66;;;2.95;85.12
52745;BME280;38637;49.984;20.426;2023-05-01T03:52:29;99852.63;;;2.99;85.51
52745;BME280;38637;49.984;20.426;2023-05-01T03:54:54;99845.34;;;2.99;86.16
52745;BME280;38637;49.984;20.426;2023-05-01T03:57:19;99856.81;;;3.08;86.30
52745;BME280;38637;49.984;20.426;2023-05-01T03:59:45;99844.78;;;3.11;86.62
52745;BME280;38637;49.984;20.426;2023-05-01T04:02:11;99856.03;;;3.21;86.57
52745;BME280;38637;49.984;20.426;2023-05-01T04:04:37;99838.81;;;3.22;87.58
52745;BME280;38637;49.984;20.426;2023-05-01T04:07:02;99848.81;;;3.35;87.18
52745;BME280;38637;49.984;20.426;2023-05-01T04:09:29;99842.19;;;3.44;86.96
52745;BME280;38637;49.984;20.426;2023-05-01T04:11:54;99853.22;;;3.49;87.71
52745;BME280;38637;49.984;20.426;2023-05-01T04:14:19;99848.03;;;3.54;87.58
52745;BME280;38637;49.984;20.426;2023-05-01T04:16:45;99838.72;;;3.70;87.46
52745;BME280;38637;49.984;20.426;2023-05-01T04:19:10;99840.63;;;3.96;86.61
52745;BME280;38637;49.984;20.426;2023-05-01T04:21:36;99845.00;;;4.10;86.76
52745;BME280;38637;49.984;20.426;2023-05-01T04:24:01;99837.69;;;4.37;86.03
52745;BME280;38637;49.984;20.426;2023-05-01T04:26:26;99846.81;;;4.63;85.83
52745;BME280;38637;49.984;20.426;2023-05-01T04:28:52;99852.59;;;4.80;84.77
52745;BME280;38637;49.984;20.426;2023-05-01T04:31:17;99851.72;;;4.99;83.73
52745;BME280;38637;49.984;20.426;2023-05-01T04:33:43;99852.06;;;5.16;82.73
52745;BME280;38637;49.984;20.426;2023-05-01T04:36:08;99847.44;;;5.30;82.65
52745;BME280;38637;49.984;20.426;2023-05-01T04:38:33;99841.50;;;5.46;81.92
52745;BME280;38637;49.984;20.426;2023-05-01T04:41:01;99841.22;;;5.61;80.85
52745;BME280;38637;49.984;20.426;2023-05-01T04:43:26;99834.88;;;5.74;80.92
52745;BME280;38637;49.984;20.426;2023-05-01T04:45:52;99841.88;;;5.88;79.92
52745;BME280;38637;49.984;20.426;2023-05-01T04:48:18;99838.47;;;5.99;79.87
52745;BME280;38637;49.984;20.426;2023-05-01T04:50:43;99839.66;;;6.10;79.20
52745;BME280;38637;49.984;20.426;2023-05-01T04:53:09;99845.19;;;6.22;78.49
52745;BME280;38637;49.984;20.426;2023-05-01T04:55:35;99834.28;;;6.29;77.46
52745;BME280;38637;49.984;20.426;2023-05-01T04:58:00;99836.56;;;6.32;77.37
52745;BME280;38637;49.984;20.426;2023-05-01T05:00:27;99842.91;;;6.44;77.09
52745;BME280;38637;49.984;20.426;2023-05-01T05:02:53;99838.16;;;6.58;77.18
52745;BME280;38637;49.984;20.426;2023-05-01T05:05:18;99840.78;;;6.71;76.52
52745;BME280;38637;49.984;20.426;2023-05-01T05:07:43;99847.25;;;6.88;75.56
52745;BME280;38637;49.984;20.426;2023-05-01T05:10:09;99822.75;;;6.95;75.46
52745;BME280;38637;49.984;20.426;2023-05-01T05:12:34;99844.84;;;7.17;74.00
52745;BME280;38637;49.984;20.426;2023-05-01T05:14:59;99835.78;;;7.23;72.90
52745;BME280;38637;49.984;20.426;2023-05-01T05:17:25;99831.25;;;7.35;73.12
52745;BME280;38637;49.984;20.426;2023-05-01T05:19:51;99836.50;;;7.49;71.88
52745;BME280;38637;49.984;20.426;2023-05-01T05:22:16;99837.38;;;7.61;71.57
52745;BME280;38637;49.984;20.426;2023-05-01T05:24:41;99830.53;;;7.70;71.27
52745;BME280;38637;49.984;20.426;2023-05-01T05:27:07;99812.59;;;7.69;70.99
52745;BME280;38637;49.984;20.426;2023-05-01T05:29:32;99821.97;;;7.85;71.28
52745;BME280;38637;49.984;20.426;2023-05-01T05:31:59;99816.16;;;7.81;70.78
52745;BME280;38637;49.984;20.426;2023-05-01T05:34:24;99825.63;;;7.91;71.28
52745;BME280;38637;49.984;20.426;2023-05-01T05:36:50;99821.16;;;7.96;71.28
52745;BME280;38637;49.984;20.426;2023-05-01T05:39:15;99842.94;;;8.08;70.82
52745;BME280;38637;49.984;20.426;2023-05-01T05:41:41;99830.41;;;8.19;70.49
52745;BME280;38637;49.984;20.426;2023-05-01T05:44:06;99832.31;;;8.18;70.00
52745;BME280;38637;49.984;20.426;2023-05-01T05:46:31;99829.25;;;8.15;70.09
52745;BME280;38637;49.984;20.426;2023-05-01T05:48:57;99844.38;;;8.22;70.27
52745;BME280;38637;49.984;20.426;2023-05-01T05:51:22;99834.22;;;8.29;70.45
52745;BME280;38637;49.984;20.426;2023-05-01T05:53:47;99829.88;;;8.40;70.56
52745;BME280;38637;49.984;20.426;2023-05-01T05:56:13;99832.25;;;8.48;69.16
52745;BME280;38637;49.984;20.426;2023-05-01T05:58:38;99829.53;;;8.60;68.86
52745;BME280;38637;49.984;20.426;2023-05-01T06:01:04;99826.78;;;8.72;69.44
52745;BME280;38637;49.984;20.426;2023-05-01T06:03:30;99832.47;;;8.82;69.44
52745;BME280;38637;49.984;20.426;2023-05-01T06:05:55;99829.50;;;8.84;69.10
52745;BME280;38637;49.984;20.426;2023-05-01T06:08:21;99821.09;;;8.85;68.17
52745;BME280;38637;49.984;20.426;2023-05-01T06:10:46;99835.06;;;8.89;67.74
52745;BME280;38637;49.984;20.426;2023-05-01T06:13:12;99826.28;;;8.98;66.43
52745;BME280;38637;49.984;20.426;2023-05-01T06:15:38;99831.59;;;9.05;65.83
52745;BME280;38637;49.984;20.426;2023-05-01T06:18:04;99831.22;;;9.13;64.84
52745;BME280;38637;49.984;20.426;2023-05-01T06:20:29;99832.00;;;9.26;63.60
52745;BME280;38637;49.984;20.426;2023-05-01T06:22:55;99831.88;;;9.32;64.23
52745;BME280;38637;49.984;20.426;2023-05-01T06:25:21;99829.59;;;9.41;61.69
52745;BME280;38637;49.984;20.426;2023-05-01T06:27:48;99844.16;;;9.47;63.64
52745;BME280;38637;49.984;20.426;2023-05-01T06:30:13;99830.59;;;9.52;63.33
52745;BME280;38637;49.984;20.426;2023-05-01T06:32:38;99836.91;;;9.52;63.08
52745;BME280;38637;49.984;20.426;2023-05-01T06:35:06;99835.84;;;9.53;63.82
52745;BME280;38637;49.984;20.426;2023-05-01T06:37:32;99838.19;;;9.61;64.58
52745;BME280;38637;49.984;20.426;2023-05-01T06:39:57;99834.09;;;9.64;64.05
52745;BME280;38637;49.984;20.426;2023-05-01T06:42:22;99827.69;;;9.70;63.30
52745;BME280;38637;49.984;20.426;2023-05-01T06:44:48;99828.03;;;9.74;63.70
52745;BME280;38637;49.984;20.426;2023-05-01T06:47:13;99828.22;;;9.84;63.64
52745;BME280;38637;49.984;20.426;2023-05-01T06:49:38;99840.38;;;9.93;63.43
52745;BME280;38637;49.984;20.426;2023-05-01T06:52:03;99827.88;;;9.97;63.04
52745;BME280;38637;49.984;20.426;2023-05-01T06:54:29;99835.84;;;9.99;61.23
52745;BME280;38637;49.984;20.426;2023-05-01T06:56:55;99838.63;;;10.04;61.66
52745;BME280;38637;49.984;20.426;2023-05-01T06:59:20;99829.81;;;10.13;61.67
52745;BME280;38637;49.984;20.426;2023-05-01T07:01:46;99830.22;;;10.22;61.03
52745;BME280;38637;49.984;20.426;2023-05-01T07:04:11;99831.06;;;10.23;61.33
52745;BME280;38637;49.984;20.426;2023-05-01T07:06:36;99833.88;;;10.28;61.09
52745;BME280;38637;49.984;20.426;2023-05-01T07:09:03;99824.16;;;10.32;60.25
52745;BME280;38637;49.984;20.426;2023-05-01T07:11:29;99827.25;;;10.41;61.16
52745;BME280;38637;49.984;20.426;2023-05-01T07:13:54;99838.28;;;10.46;61.01
52745;BME280;38637;49.984;20.426;2023-05-01T07:16:20;99830.41;;;10.49;60.34
52745;BME280;38637;49.984;20.426;2023-05-01T07:18:46;99828.25;;;10.51;58.38
52745;BME280;38637;49.984;20.426;2023-05-01T07:21:11;99826.19;;;10.58;59.03
52745;BME280;38637;49.984;20.426;2023-05-01T07:23:37;99821.88;;;10.63;59.02
52745;BME280;38637;49.984;20.426;2023-05-01T07:26:03;99823.28;;;10.65;58.73
52745;BME280;38637;49.984;20.426;2023-05-01T07:28:29;99831.84;;;10.74;56.45
52745;BME280;38637;49.984;20.426;2023-05-01T07:30:54;99826.41;;;10.74;56.19
52745;BME280;38637;49.984;20.426;2023-05-01T07:33:19;99824.88;;;10.83;55.39
52745;BME280;38637;49.984;20.426;2023-05-01T07:35:45;99827.69;;;10.88;56.94
52745;BME280;38637;49.984;20.426;2023-05-01T07:38:10;99818.50;;;10.94;55.85
52745;BME280;38637;49.984;20.426;2023-05-01T07:40:36;99822.13;;;11.00;54.44
52745;BME280;38637;49.984;20.426;2023-05-01T07:43:02;99800.25;;;11.00;55.04
52745;BME280;38637;49.984;20.426;2023-05-01T07:45:29;99814.03;;;11.10;56.42
52745;BME280;38637;49.984;20.426;2023-05-01T07:47:54;99815.22;;;11.14;54.49
52745;BME280;38637;49.984;20.426;2023-05-01T07:50:21;99812.28;;;11.21;54.91
52745;BME280;38637;49.984;20.426;2023-05-01T07:52:46;99812.38;;;11.31;53.82
52745;BME280;38637;49.984;20.426;2023-05-01T07:55:12;99817.66;;;11.38;53.32
52745;BME280;38637;49.984;20.426;2023-05-01T07:57:37;99821.84;;;11.45;53.80
52745;BME280;38637;49.984;20.426;2023-05-01T08:00:03;99817.28;;;11.51;54.09
52745;BME280;38637;49.984;20.426;2023-05-01T08:02:29;99819.53;;;11.59;52.67
52745;BME280;38637;49.984;20.426;2023-05-01T08:04:54;99817.38;;;11.61;52.80
52745;BME280;38637;49.984;20.426;2023-05-01T08:07:19;99813.84;;;11.66;51.09
52745;BME280;38637;49.984;20.426;2023-05-01T08:09:45;99806.22;;;11.68;50.35
52745;BME280;38637;49.984;20.426;2023-05-01T08:12:10;99807.63;;;11.70;49.80
52745;BME280;38637;49.984;20.426;2023-05-01T08:14:35;99808.75;;;11.74;49.48
52745;BME280;38637;49.984;20.426;2023-05-01T08:17:01;99813.16;;;11.76;49.24
52745;BME280;38637;49.984;20.426;2023-05-01T08:19:26;99811.78;;;11.78;50.09
52745;BME280;38637;49.984;20.426;2023-05-01T08:21:52;99807.41;;;11.77;50.44
52745;BME280;38637;49.984;20.426;2023-05-01T08:24:17;99806.31;;;11.78;49.95
52745;BME280;38637;49.984;20.426;2023-05-01T08:26:43;99810.72;;;11.79;50.22
52745;BME280;38637;49.984;20.426;2023-05-01T08:29:08;99806.16;;;11.85;51.11
52745;BME280;38637;49.984;20.426;2023-05-01T08:31:34;99804.59;;;11.94;51.73
52745;BME280;38637;49.984;20.426;2023-05-01T08:34:02;99804.94;;;12.03;51.20
52745;BME280;38637;49.984;20.426;2023-05-01T08:36:27;99809.88;;;12.06;51.08
52745;BME280;38637;49.984;20.426;2023-05-01T08:38:52;99810.22;;;12.09;50.67
52745;BME280;38637;49.984;20.426;2023-05-01T08:41:20;99791.56;;;12.06;48.80
52745;BME280;38637;49.984;20.426;2023-05-01T08:43:45;99797.94;;;12.17;49.91
52745;BME280;38637;49.984;20.426;2023-05-01T08:46:11;99796.06;;;12.23;49.93
52745;BME280;38637;49.984;20.426;2023-05-01T08:48:39;99800.75;;;12.27;49.90
52745;BME280;38637;49.984;20.426;2023-05-01T08:51:09;99792.28;;;12.29;49.70
52745;BME280;38637;49.984;20.426;2023-05-01T08:53:36;99795.38;;;12.37;49.87
52745;BME280;38637;49.984;20.426;2023-05-01T08:56:05;99796.81;;;12.50;50.47
52745;BME280;38637;49.984;20.426;2023-05-01T08:58:32;99805.06;;;12.55;50.33
52745;BME280;38637;49.984;20.426;2023-05-01T09:01:00;99798.22;;;12.58;49.12
52745;BME280;38637;49.984;20.426;2023-05-01T09:03:30;99796.34;;;12.58;48.72
52745;BME280;38637;49.984;20.426;2023-05-01T09:05:56;99802.66;;;12.64;49.33
52745;BME280;38637;49.984;20.426;2023-05-01T09:08:22;99804.06;;;12.72;49.18
52745;BME280;38637;49.984;20.426;2023-05-01T09:10:47;99801.09;;;12.78;49.11
52745;BME280;38637;49.984;20.426;2023-05-01T09:13:13;99793.44;;;12.80;47.17
52745;BME280;38637;49.984;20.426;2023-05-01T09:15:38;99791.25;;;12.82;47.47
52745;BME280;38637;49.984;20.426;2023-05-01T09:18:04;99790.47;;;12.87;47.04
52745;BME280;38637;49.984;20.426;2023-05-01T09:20:30;99769.06;;;12.84;46.70
52745;BME280;38637;49.984;20.426;2023-05-01T09:22:55;99780.06;;;12.94;46.63
52745;BME280;38637;49.984;20.426;2023-05-01T09:25:21;99783.09;;;12.93;45.51
52745;BME280;38637;49.984;20.426;2023-05-01T09:27:46;99783.09;;;12.93;46.07
52745;BME280;38637;49.984;20.426;2023-05-01T09:30:36;99777.59;;;12.98;46.68
52745;BME280;38637;49.984;20.426;2023-05-01T09:33:12;99776.84;;;13.07;46.70
52745;BME280;38637;49.984;20.426;2023-05-01T09:35:52;99770.81;;;13.10;46.48
52745;BME280;38637;49.984;20.426;2023-05-01T09:38:22;99768.34;;;13.09;44.62
52745;BME280;38637;49.984;20.426;2023-05-01T09:40:48;99773.28;;;13.12;43.19
52745;BME280;38637;49.984;20.426;2023-05-01T09:43:23;99761.78;;;13.15;44.30
52745;BME280;38637;49.984;20.426;2023-05-01T09:46:00;99754.41;;;13.21;45.19
52745;BME280;38637;49.984;20.426;2023-05-01T09:48:28;99748.97;;;13.26;45.50
52745;BME280;38637;49.984;20.426;2023-05-01T09:50:54;99747.91;;;13.32;46.29
52745;BME280;38637;49.984;20.426;2023-05-01T09:53:33;99745.97;;;13.32;45.41
52745;BME280;38637;49.984;20.426;2023-05-01T09:56:01;99745.97;;;13.32;44.95
52745;BME280;38637;49.984;20.426;2023-05-01T09:58:27;99747.06;;;13.37;44.84
52745;BME280;38637;49.984;20.426;2023-05-01T10:00:52;99744.59;;;13.40;43.89
52745;BME280;38637;49.984;20.426;2023-05-01T10:03:18;99742.16;;;13.44;42.98
52745;BME280;38637;49.984;20.426;2023-05-01T10:05:43;99733.94;;;13.44;42.22
52745;BME280;38637;49.984;20.426;2023-05-01T10:08:08;99732.81;;;13.45;40.80
52745;BME280;38637;49.984;20.426;2023-05-01T10:10:39;99733.91;;;13.49;41.11
52745;BME280;38637;49.984;20.426;2023-05-01T10:13:15;99730.38;;;13.53;40.74
52745;BME280;38637;49.984;20.426;2023-05-01T10:15:40;99725.41;;;13.55;41.18
52745;BME280;38637;49.984;20.426;2023-05-01T10:18:07;99723.81;;;13.60;41.37
52745;BME280;38637;49.984;20.426;2023-05-01T10:20:33;99720.22;;;13.64;40.71
52745;BME280;38637;49.984;20.426;2023-05-01T10:23:03;99721.59;;;13.67;40.08
52745;BME280;38637;49.984;20.426;2023-05-01T10:25:28;99713.66;;;13.75;40.54
52745;BME280;38637;49.984;20.426;2023-05-01T10:27:55;99706.78;;;13.83;41.03
52745;BME280;38637;49.984;20.426;2023-05-01T10:30:21;99708.41;;;13.89;40.35
52745;BME280;38637;49.984;20.426;2023-05-01T10:32:47;99709.28;;;13.90;40.97
52745;BME280;38637;49.984;20.426;2023-05-01T10:35:18;99714.19;;;13.98;40.91
52745;BME280;38637;49.984;20.426;2023-05-01T10:40:43;99701.81;;;14.00;37.25
52745;BME280;38637;49.984;20.426;2023-05-01T10:43:15;99699.91;;;14.11;38.36
52745;BME280;38637;49.984;20.426;2023-05-01T10:45:43;99700.16;;;14.20;40.15
52745;BME280;38637;49.984;20.426;2023-05-01T10:48:08;99697.13;;;14.21;39.08
52745;BME280;38637;49.984;20.426;2023-05-01T10:50:33;99702.06;;;14.24;38.53
52745;BME280;38637;49.984;20.426;2023-05-01T10:55:37;99691.88;;;14.35;37.42
52745;BME280;38637;49.984;20.426;2023-05-01T10:58:03;99678.44;;;14.34;36.71
52745;BME280;38637;49.984;20.426;2023-05-01T11:00:29;99692.16;;;14.39;37.25
52745;BME280;38637;49.984;20.426;2023-05-01T11:08:32;99684.69;;;14.49;36.93
52745;BME280;38637;49.984;20.426;2023-05-01T11:13:59;99671.25;;;14.58;37.68
52745;BME280;38637;49.984;20.426;2023-05-01T11:19:52;99663.50;;;14.70;37.37
52745;BME280;38637;49.984;20.426;2023-05-01T11:21:53;99660.13;;;14.84;37.21
52745;BME280;38637;49.984;20.426;2023-05-01T11:24:19;99661.47;;;14.91;36.44
52745;BME280;38637;49.984;20.426;2023-05-01T11:26:45;99659.53;;;14.92;34.69
52745;BME280;38637;49.984;20.426;2023-05-01T11:29:11;99652.91;;;14.93;34.38
52745;BME280;38637;49.984;20.426;2023-05-01T11:31:37;99654.59;;;14.94;35.18
52745;BME280;38637;49.984;20.426;2023-05-01T11:34:03;99650.97;;;14.99;35.60
52745;BME280;38637;49.984;20.426;2023-05-01T11:36:46;99638.56;;;15.06;36.13
52745;BME280;38637;49.984;20.426;2023-05-01T11:39:14;99635.97;;;15.20;36.27
52745;BME280;38637;49.984;20.426;2023-05-01T11:41:41;99632.97;;;15.22;36.98
52745;BME280;38637;49.984;20.426;2023-05-01T11:44:06;99622.78;;;15.22;36.65
52745;BME280;38637;49.984;20.426;2023-05-01T11:46:32;99636.22;;;15.24;35.75
52745;BME280;38637;49.984;20.426;2023-05-01T11:48:59;99626.03;;;15.24;34.29
52745;BME280;38637;49.984;20.426;2023-05-01T11:51:28;99612.81;;;15.26;34.48
52745;BME280;38637;49.984;20.426;2023-05-01T11:54:02;99619.66;;;15.34;35.33
52745;BME280;38637;49.984;20.426;2023-05-01T11:56:28;99614.72;;;15.31;35.47
52745;BME280;38637;49.984;20.426;2023-05-01T11:58:55;99607.00;;;15.33;34.63
52745;BME280;38637;49.984;20.426;2023-05-01T12:01:32;99612.47;;;15.38;35.06
52745;BME280;38637;49.984;20.426;2023-05-01T12:03:58;99610.19;;;15.45;35.51
52745;BME280;38637;49.984;20.426;2023-05-01T12:06:37;99606.28;;;15.51;36.23
52745;BME280;38637;49.984;20.426;2023-05-01T12:09:05;99596.44;;;15.45;34.27
52745;BME280;38637;49.984;20.426;2023-05-01T12:11:32;99604.28;;;15.62;33.63
52745;BME280;38637;49.984;20.426;2023-05-01T12:13:57;99591.84;;;15.70;34.49
52745;BME280;38637;49.984;20.426;2023-05-01T12:16:23;99585.75;;;15.73;34.29
52745;BME280;38637;49.984;20.426;2023-05-01T12:18:49;99576.16;;;15.70;34.00
52745;BME280;38637;49.984;20.426;2023-05-01T12:21:15;99587.31;;;15.84;34.19
52745;BME280;38637;49.984;20.426;2023-05-01T12:23:43;99583.69;;;15.89;33.90
52745;BME280;38637;49.984;20.426;2023-05-01T12:26:17;99578.88;;;15.99;34.55
52745;BME280;38637;49.984;20.426;2023-05-01T12:31:18;99580.34;;;15.92;32.83
52745;BME280;38637;49.984;20.426;2023-05-01T12:33:58;99582.78;;;15.93;32.84
52745;BME280;38637;49.984;20.426;2023-05-01T12:36:27;99575.94;;;15.91;32.21
52745;BME280;38637;49.984;20.426;2023-05-01T12:44:17;99571.06;;;16.06;31.07
52745;BME280;38637;49.984;20.426;2023-05-01T12:46:51;99561.94;;;16.11;31.10
52745;BME280;38637;49.984;20.426;2023-05-01T12:49:17;99553.13;;;16.09;31.00
52745;BME280;38637;49.984;20.426;2023-05-01T12:51:47;99552.63;;;16.07;31.18
52745;BME280;38637;49.984;20.426;2023-05-01T12:54:20;99553.50;;;16.02;31.60
52745;BME280;38637;49.984;20.426;2023-05-01T12:56:46;99549.03;;;16.06;32.57
52745;BME280;38637;49.984;20.426;2023-05-01T12:59:26;99546.22;;;16.12;32.35
52745;BME280;38637;49.984;20.426;2023-05-01T13:02:03;99542.84;;;16.20;31.21
52745;BME280;38637;49.984;20.426;2023-05-01T13:04:29;99534.75;;;16.28;30.77
52745;BME280;38637;49.984;20.426;2023-05-01T13:06:56;99530.25;;;16.33;31.09
52745;BME280;38637;49.984;20.426;2023-05-01T13:09:22;99538.09;;;16.44;32.20
52745;BME280;38637;49.984;20.426;2023-05-01T13:12:03;99533.09;;;16.46;32.08
52745;BME280;38637;49.984;20.426;2023-05-01T13:14:39;99530.94;;;16.43;30.92
52745;BME280;38637;49.984;20.426;2023-05-01T13:17:06;99522.66;;;16.43;31.60
52745;BME280;38637;49.984;20.426;2023-05-01T13:19:32;99522.59;;;16.48;31.87
52745;BME280;38637;49.984;20.426;2023-05-01T13:21:57;99520.97;;;16.47;31.73
52745;BME280;38637;49.984;20.426;2023-05-01T13:24:24;99512.91;;;16.51;32.26
52745;BME280;38637;49.984;20.426;2023-05-01T13:26:59;99518.97;;;16.53;32.63
52745;BME280;38637;49.984;20.426;2023-05-01T13:29:26;99515.38;;;16.52;31.43
52745;BME280;38637;49.984;20.426;2023-05-01T13:31:51;99504.28;;;16.58;31.90